Time;durP1;ratioP1;P1;durP2;ratioP2;P2;SDS_P1;SDS_P2;PMS_P1;PMS_P2;Temp;Humidity;BMP_temperature;BMP_pressure;BME280_temperature;BME280_humidity;BME280_pressure;Samples;Min_cycle;Max_cycle;Signal;HPM_P1;HPM_P2
2021/09/02 00:01:04;;;;;;;10.50;3.83;;;;;;;20.07;49.66;100552.63;5050984;28;20075;-63
2021/09/02 00:03:29;;;;;;;7.25;3.83;;;;;;;20.34;47.78;100579.69;5052054;28;20025;-64
2021/09/02 00:05:55;;;;;;;7.32;4.00;;;;;;;20.28;49.29;100580.56;5033884;28;20045;-64
2021/09/02 00:08:20;;;;;;;8.40;4.07;;;;;;;20.36;49.35;100585.78;5052086;28;20051;-64
2021/09/02 00:10:46;;;;;;;6.00;4.20;;;;;;;20.37;47.73;100579.69;5052510;28;20021;-66
2021/09/02 00:13:12;;;;;;;5.90;4.03;;;;;;;20.26;47.43;100570.97;5051825;28;20044;-63
2021/09/02 00:15:37;;;;;;;13.75;4.20;;;;;;;20.42;48.05;100583.16;5034029;28;20025;-64
2021/09/02 00:18:03;;;;;;;6.55;4.20;;;;;;;20.32;48.63;100598.03;5051849;28;20033;-64
2021/09/02 00:20:29;;;;;;;5.22;3.70;;;;;;;20.02;48.65;100562.25;5051369;28;20021;-67
2021/09/02 00:22:54;;;;;;;7.30;3.80;;;;;;;20.20;47.64;100588.44;5051747;28;20083;-66
2021/09/02 00:25:20;;;;;;;6.38;4.13;;;;;;;20.22;46.96;100575.31;5051537;28;20024;-67
2021/09/02 00:27:46;;;;;;;4.85;4.03;;;;;;;20.29;48.58;100594.56;5033748;28;20498;-62
2021/09/02 00:30:11;;;;;;;6.50;3.60;;;;;;;20.17;49.26;100598.06;5051554;28;20028;-63
2021/09/02 00:32:37;;;;;;;6.63;3.97;;;;;;;20.03;49.44;100605.94;5051564;28;20021;-67
2021/09/02 00:35:04;;;;;;;7.18;4.38;;;;;;;19.69;49.73;100609.34;5036591;28;20489;-71
2021/09/02 00:37:29;;;;;;;6.22;4.38;;;;;;;18.81;51.38;100566.31;5031800;28;20033;-67
2021/09/02 00:39:55;;;;;;;6.47;4.35;;;;;;;18.07;53.76;100608.53;5031814;28;20395;-64
2021/09/02 00:42:20;;;;;;;9.68;4.50;;;;;;;17.77;54.94;100620.44;5031442;28;20446;-64
2021/09/02 00:44:46;;;;;;;5.63;4.20;;;;;;;17.45;55.68;100567.00;5031782;28;20029;-63
2021/09/02 00:47:14;;;;;;;6.05;4.63;;;;;;;18.00;55.08;100625.00;5031385;28;20032;-68
2021/09/02 00:49:41;;;;;;;6.25;4.38;;;;;;;17.61;55.42;100575.88;5031082;28;20087;-65
2021/09/02 00:52:13;;;;;;;5.93;4.28;;;;;;;17.43;56.53;100623.56;5031521;28;20048;-66
2021/09/02 00:54:45;;;;;;;5.45;4.32;;;;;;;17.38;56.66;100629.56;5031323;28;20025;-65
2021/09/02 00:57:11;;;;;;;6.25;4.40;;;;;;;17.53;56.26;100628.88;5031388;28;20101;-68
2021/09/02 00:59:38;;;;;;;5.97;4.10;;;;;;;17.24;56.47;100624.19;5031031;28;20022;-67
2021/09/02 01:02:04;;;;;;;7.20;4.65;;;;;;;17.49;56.91;100627.94;5030757;28;20056;-66
2021/09/02 01:04:30;;;;;;;5.97;4.32;;;;;;;17.19;55.87;100553.69;5031035;28;20053;-68
2021/09/02 01:06:56;;;;;;;5.10;4.32;;;;;;;17.65;56.33;100628.13;5034274;28;20053;-68
2021/09/02 01:09:22;;;;;;;6.50;4.70;;;;;;;17.72;55.82;100635.16;5050826;28;20448;-63
2021/09/02 01:11:47;;;;;;;4.90;4.03;;;;;;;17.85;55.32;100636.16;5051858;28;20108;-66
2021/09/02 01:14:17;;;;;;;7.55;4.38;;;;;;;17.76;55.52;100639.56;5057321;28;20469;-65
2021/09/02 01:16:47;;;;;;;6.43;4.30;;;;;;;17.49;55.86;100586.19;5057253;28;20024;-65
2021/09/02 01:19:20;;;;;;;8.30;4.57;;;;;;;17.83;56.04;100632.66;5057786;28;20029;-71
2021/09/02 01:21:46;;;;;;;7.65;5.38;;;;;;;17.78;56.29;100627.38;5057804;28;20028;-65
2021/09/02 01:24:13;;;;;;;6.18;4.63;;;;;;;17.44;57.60;100629.63;5057738;28;20020;-63
2021/09/02 01:26:39;;;;;;;5.30;4.60;;;;;;;17.50;57.88;100636.69;5057315;28;20124;-64
2021/09/02 01:29:04;;;;;;;7.95;4.70;;;;;;;17.38;58.19;100633.03;5057223;28;20104;-66
2021/09/02 01:31:30;;;;;;;6.60;4.63;;;;;;;17.18;58.93;100630.19;5057344;28;20083;-66
2021/09/02 01:33:56;;;;;;;7.20;4.20;;;;;;;17.34;58.92;100636.47;5057131;28;20031;-64
2021/09/02 01:36:21;;;;;;;5.85;4.68;;;;;;;17.42;58.89;100624.41;5057725;28;20025;-64
2021/09/02 01:38:47;;;;;;;7.90;4.53;;;;;;;17.30;59.17;100608.59;5057605;28;20024;-66
2021/09/02 01:41:12;;;;;;;5.22;4.50;;;;;;;17.19;60.19;100625.88;5057687;28;20039;-66
2021/09/02 01:43:38;;;;;;;6.80;4.90;;;;;;;17.03;60.85;100630.00;5057570;28;20112;-64
2021/09/02 01:46:04;;;;;;;6.03;4.32;;;;;;;16.79;61.75;100605.34;5057452;28;20477;-64
2021/09/02 01:48:36;;;;;;;5.78;4.30;;;;;;;16.56;61.80;100577.22;5057268;28;20028;-66
2021/09/02 01:51:03;;;;;;;6.43;4.70;;;;;;;16.55;62.92;100621.47;5058002;28;20032;-67
2021/09/02 01:53:29;;;;;;;9.50;4.53;;;;;;;16.44;62.65;100596.16;5057658;28;20078;-64
2021/09/02 01:55:55;;;;;;;6.15;4.35;;;;;;;16.70;62.58;100621.72;5057780;28;20029;-67
2021/09/02 01:58:21;;;;;;;5.68;3.97;;;;;;;16.56;63.11;100623.25;5056771;28;20126;-67
2021/09/02 02:00:48;;;;;;;5.78;4.63;;;;;;;16.57;63.21;100622.38;5057293;28;20032;-67
2021/09/02 02:03:13;;;;;;;6.88;4.60;;;;;;;16.69;62.91;100619.09;5005324;28;20033;-67
2021/09/02 02:05:39;;;;;;;5.43;4.60;;;;;;;16.85;62.96;100623.66;5057000;28;20418;-70
2021/09/02 02:08:05;;;;;;;6.90;4.97;;;;;;;16.74;62.58;100615.69;5057183;28;20048;-67
2021/09/02 02:10:31;;;;;;;7.47;4.38;;;;;;;16.54;63.32;100618.00;5057239;28;20029;-66
2021/09/02 02:13:00;;;;;;;8.63;4.32;;;;;;;16.31;63.11;100591.59;5056978;28;20117;-67
2021/09/02 02:15:26;;;;;;;6.55;4.82;;;;;;;16.21;63.67;100619.22;5057055;28;20180;-63
2021/09/02 02:17:53;;;;;;;6.55;4.30;;;;;;;16.19;63.74;100631.38;5057098;28;20028;-64
2021/09/02 02:20:18;;;;;;;7.28;5.03;;;;;;;16.47;63.41;100623.97;5055135;28;20079;-63
2021/09/02 02:22:44;;;;;;;8.10;5.10;;;;;;;16.56;62.43;100618.91;5039159;28;20037;-64
2021/09/02 02:25:11;;;;;;;9.00;4.50;;;;;;;16.94;61.67;100621.19;5033082;28;20029;-63
2021/09/02 02:27:36;;;;;;;7.65;4.60;;;;;;;17.11;60.48;100621.44;5033950;28;20021;-65
2021/09/02 02:30:08;;;;;;;6.15;4.68;;;;;;;17.29;59.99;100619.91;5034566;28;20033;-64
2021/09/02 02:32:33;;;;;;;8.18;5.10;;;;;;;17.15;59.88;100632.78;5016044;28;20027;-64
2021/09/02 02:34:59;;;;;;;7.30;4.38;;;;;;;16.93;59.49;100622.06;5033955;28;20033;-64
2021/09/02 02:37:25;;;;;;;7.10;4.32;;;;;;;16.99;60.33;100618.66;5033902;28;20025;-67
2021/09/02 02:39:50;;;;;;;7.30;4.55;;;;;;;17.08;59.47;100617.91;5033763;28;20030;-63
2021/09/02 02:42:17;;;;;;;5.75;4.60;;;;;;;16.92;59.61;100619.44;5033914;28;20053;-66
2021/09/02 02:44:43;;;;;;;8.70;4.50;;;;;;;17.11;59.59;100623.19;5033875;28;20030;-65
2021/09/02 02:47:09;;;;;;;7.05;4.50;;;;;;;16.87;60.10;100621.94;5033963;28;20026;-64
2021/09/02 02:49:35;;;;;;;6.30;4.57;;;;;;;17.03;59.75;100630.88;5033418;28;20034;-64
2021/09/02 02:52:01;;;;;;;5.78;4.30;;;;;;;16.78;59.72;100638.31;5033912;28;20079;-64
2021/09/02 02:54:26;;;;;;;7.45;4.70;;;;;;;16.90;59.25;100634.16;5033321;28;20466;-66
2021/09/02 02:56:52;;;;;;;7.70;4.72;;;;;;;16.92;59.76;100633.38;5033818;28;20528;-64
2021/09/02 02:59:17;;;;;;;8.10;4.50;;;;;;;17.16;59.02;100636.25;5033602;28;20450;-64
2021/09/02 03:01:43;;;;;;;10.25;4.13;;;;;;;17.04;59.59;100637.00;5033671;28;20049;-63
2021/09/02 03:04:08;;;;;;;6.03;4.70;;;;;;;17.15;59.51;100635.38;5033301;28;20109;-64
2021/09/02 03:06:34;;;;;;;6.38;4.55;;;;;;;16.91;59.16;100622.84;5033001;28;20160;-63
2021/09/02 03:09:02;;;;;;;8.20;4.72;;;;;;;16.70;59.70;100602.56;5033539;28;20029;-63
2021/09/02 03:11:27;;;;;;;8.57;5.05;;;;;;;16.40;60.96;100617.81;5033347;28;20029;-64
2021/09/02 03:13:53;;;;;;;7.72;4.75;;;;;;;16.37;61.10;100628.16;5033434;28;20049;-64
2021/09/02 03:16:18;;;;;;;7.63;4.38;;;;;;;16.33;61.32;100632.44;5015765;28;20494;-64
2021/09/02 03:18:44;;;;;;;7.15;4.70;;;;;;;16.14;61.57;100610.44;5033149;28;20503;-65
2021/09/02 03:21:09;;;;;;;6.38;4.10;;;;;;;15.75;62.71;100616.69;5033345;28;20395;-63
2021/09/02 03:23:35;;;;;;;8.98;4.70;;;;;;;15.73;63.33;100623.59;5033241;28;20021;-64
2021/09/02 03:26:00;;;;;;;9.55;4.78;;;;;;;15.52;63.77;100608.47;5032776;28;20033;-64
2021/09/02 03:28:26;;;;;;;7.80;4.63;;;;;;;15.55;64.14;100608.50;5033212;28;20096;-65
2021/09/02 03:30:51;;;;;;;10.68;4.47;;;;;;;15.44;64.68;100610.03;5033008;28;20049;-65
2021/09/02 03:33:17;;;;;;;13.00;4.88;;;;;;;15.40;65.34;100621.22;5032823;28;20113;-62
2021/09/02 03:35:42;;;;;;;7.38;4.45;;;;;;;15.34;65.72;100630.66;5032584;28;20385;-66
2021/09/02 03:38:09;;;;;;;7.75;4.60;;;;;;;15.34;66.19;100628.06;5032879;28;20022;-64
2021/09/02 03:40:35;;;;;;;7.07;4.47;;;;;;;14.85;66.53;100595.84;5032862;28;20033;-64
2021/09/02 03:43:01;;;;;;;7.03;4.50;;;;;;;14.92;66.43;100597.72;5032923;28;20025;-64
2021/09/02 03:45:26;;;;;;;10.45;5.07;;;;;;;15.22;66.13;100632.16;5032862;28;20033;-64
2021/09/02 03:47:51;;;;;;;8.85;4.43;;;;;;;14.86;66.43;100595.88;5032494;28;20026;-64
2021/09/02 03:50:18;;;;;;;7.82;5.00;;;;;;;14.82;66.63;100598.41;5032831;28;20028;-64
2021/09/02 03:52:44;;;;;;;7.50;5.18;;;;;;;14.90;67.06;100637.53;5033028;28;20084;-62
2021/09/02 03:55:11;;;;;;;6.47;4.65;;;;;;;15.00;67.18;100635.19;5032627;28;20122;-64
2021/09/02 03:57:36;;;;;;;6.13;4.30;;;;;;;14.82;67.08;100614.84;5032476;28;20048;-64
2021/09/02 04:00:04;;;;;;;7.63;4.65;;;;;;;14.86;67.52;100654.78;5032117;28;20605;-63
2021/09/02 04:02:29;;;;;;;10.85;4.50;;;;;;;15.03;67.49;100652.56;4982533;28;20060;-64
2021/09/02 04:04:55;;;;;;;6.05;4.07;;;;;;;14.64;68.01;100649.09;5045487;28;20041;-63
2021/09/02 04:07:20;;;;;;;8.10;4.50;;;;;;;14.53;67.96;100624.56;5051822;28;20041;-66
2021/09/02 04:09:46;;;;;;;6.72;4.57;;;;;;;14.74;68.10;100663.16;5050151;28;20392;-62
2021/09/02 04:12:12;;;;;;;7.75;4.63;;;;;;;14.76;68.04;100650.22;5051901;28;20419;-65
2021/09/02 04:14:38;;;;;;;10.85;4.47;;;;;;;14.75;68.28;100661.47;5051989;28;20029;-65
2021/09/02 04:17:04;;;;;;;6.90;4.57;;;;;;;14.87;68.23;100646.16;5034092;28;20125;-64
2021/09/02 04:19:29;;;;;;;6.22;4.40;;;;;;;15.14;67.38;100650.19;5052054;28;20060;-64
2021/09/02 04:21:55;;;;;;;6.78;4.22;;;;;;;15.12;67.24;100650.16;5052398;28;20060;-63
2021/09/02 04:24:20;;;;;;;7.18;4.30;;;;;;;15.04;67.15;100649.09;5051646;28;20052;-64
2021/09/02 04:26:46;;;;;;;6.68;4.57;;;;;;;15.05;67.23;100653.47;5051844;28;20100;-64
2021/09/02 04:29:11;;;;;;;9.40;4.97;;;;;;;15.27;67.19;100665.19;5052010;28;20029;-64
2021/09/02 04:31:37;;;;;;;8.55;4.55;;;;;;;15.27;66.67;100659.13;5051679;28;20029;-65
2021/09/02 04:34:02;;;;;;;7.57;4.68;;;;;;;15.58;66.21;100676.22;5051781;28;20029;-66
2021/09/02 04:36:28;;;;;;;9.25;4.78;;;;;;;15.67;65.20;100644.31;5051487;28;20029;-66
2021/09/02 04:38:53;;;;;;;48.92;22.25;;;;;;;15.83;64.36;100648.97;5051337;28;20029;-65
2021/09/02 04:41:19;;;;;;;71.75;28.55;;;;;;;16.22;63.92;100691.31;5051959;28;20376;-66
2021/09/02 04:43:44;;;;;;;24.70;12.00;;;;;;;16.38;63.62;100700.28;5051667;28;20017;-65
2021/09/02 04:46:13;;;;;;;13.00;6.78;;;;;;;16.28;62.91;100699.25;5051280;28;20032;-65
2021/09/02 04:48:38;;;;;;;11.23;5.00;;;;;;;16.04;63.83;100699.69;5051336;28;20485;-63
2021/09/02 04:51:04;;;;;;;8.75;4.82;;;;;;;15.59;64.65;100690.09;5051412;28;20077;-65
2021/09/02 04:53:29;;;;;;;10.60;5.07;;;;;;;15.49;65.52;100702.09;5051560;28;20040;-64
2021/09/02 04:55:55;;;;;;;8.90;4.05;;;;;;;15.49;65.37;100717.69;5051283;28;20025;-65
2021/09/02 04:58:20;;;;;;;7.47;4.82;;;;;;;15.40;65.32;100665.44;5051051;28;20035;-65
2021/09/02 05:00:46;;;;;;;7.97;4.95;;;;;;;15.90;64.65;100717.69;5051243;28;20025;-65
2021/09/02 05:03:11;;;;;;;7.03;4.47;;;;;;;16.04;64.11;100717.94;5051009;28;20048;-65
2021/09/02 05:05:37;;;;;;;8.02;4.28;;;;;;;16.06;64.08;100718.81;5051246;28;20040;-65
2021/09/02 05:08:03;;;;;;;10.52;5.05;;;;;;;16.02;64.06;100717.00;5051215;28;20061;-65
2021/09/02 05:10:29;;;;;;;9.20;4.35;;;;;;;15.99;63.83;100715.22;5051441;28;20037;-65
2021/09/02 05:12:55;;;;;;;8.57;4.65;;;;;;;16.04;64.38;100723.13;5051397;28;20017;-65
2021/09/02 05:15:20;;;;;;;7.72;5.13;;;;;;;15.98;63.77;100694.38;5051332;28;20087;-65
2021/09/02 05:17:47;;;;;;;10.98;4.28;;;;;;;16.23;63.21;100706.09;5051068;28;20021;-65
2021/09/02 05:20:13;;;;;;;7.93;4.40;;;;;;;16.41;63.49;100723.78;5051306;28;20083;-65
2021/09/02 05:22:40;;;;;;;8.65;4.07;;;;;;;16.26;63.05;100682.72;5050996;28;20406;-65
2021/09/02 05:25:06;;;;;;;8.43;4.38;;;;;;;16.48;62.57;100710.00;5051303;28;20025;-65
2021/09/02 05:27:33;;;;;;;8.48;4.75;;;;;;;16.62;63.23;100715.47;5051339;28;20064;-68
2021/09/02 05:30:00;;;;;;;7.15;4.28;;;;;;;16.66;62.25;100725.06;5051085;28;20079;-65
2021/09/02 05:32:25;;;;;;;8.27;4.10;;;;;;;16.86;61.10;100710.56;5050789;28;20028;-65
2021/09/02 05:34:51;;;;;;;8.50;4.10;;;;;;;16.83;61.10;100703.59;5050740;28;20028;-65
2021/09/02 05:37:16;;;;;;;7.13;4.15;;;;;;;16.94;61.39;100706.41;5050566;28;20032;-65
2021/09/02 05:39:42;;;;;;;7.15;4.60;;;;;;;17.02;60.80;100706.50;5050179;28;20025;-64
2021/09/02 05:42:07;;;;;;;9.02;4.55;;;;;;;17.06;61.71;100714.41;5051131;28;20028;-65
2021/09/02 05:44:33;;;;;;;11.98;4.50;;;;;;;17.11;60.67;100717.09;5050729;28;20029;-65
2021/09/02 05:46:59;;;;;;;8.70;4.55;;;;;;;17.18;60.19;100715.44;5050698;28;20032;-65
2021/09/02 05:49:25;;;;;;;8.65;4.50;;;;;;;17.22;59.86;100686.78;5050502;28;20032;-65
2021/09/02 05:51:50;;;;;;;7.85;4.45;;;;;;;17.55;59.71;100710.69;5051178;28;20040;-65
2021/09/02 05:54:16;;;;;;;8.18;4.30;;;;;;;17.77;59.25;100715.28;5050652;28;20025;-65
2021/09/02 05:56:41;;;;;;;7.07;4.32;;;;;;;17.56;57.67;100670.69;5050538;28;20035;-65
2021/09/02 05:59:07;;;;;;;5.93;3.80;;;;;;;17.84;58.32;100713.63;5051418;28;20024;-65
2021/09/02 06:01:32;;;;;;;8.65;4.07;;;;;;;17.88;58.23;100707.59;5019166;28;20484;-65
2021/09/02 06:03:58;;;;;;;8.20;4.50;;;;;;;17.94;57.35;100717.25;5054144;28;20021;-68
2021/09/02 06:06:24;;;;;;;7.95;4.15;;;;;;;18.17;57.92;100720.09;5053064;28;20049;-65
2021/09/02 06:08:52;;;;;;;5.82;3.60;;;;;;;18.08;56.82;100688.63;5048946;28;20135;-65
2021/09/02 06:11:17;;;;;;;8.98;3.55;;;;;;;18.27;56.73;100711.47;5034503;28;20041;-65
2021/09/02 06:13:43;;;;;;;6.80;3.97;;;;;;;18.43;56.80;100703.78;5034282;28;20037;-65
2021/09/02 06:16:08;;;;;;;7.90;3.90;;;;;;;18.67;55.74;100710.94;5034374;28;20026;-65
2021/09/02 06:18:34;;;;;;;5.82;3.40;;;;;;;18.79;55.03;100715.41;5034165;28;20029;-65
2021/09/02 06:20:59;;;;;;;6.55;4.00;;;;;;;18.86;54.63;100706.69;5034044;28;20030;-70
2021/09/02 06:23:25;;;;;;;8.65;4.05;;;;;;;18.70;54.61;100676.94;5034740;28;20483;-64
2021/09/02 06:25:50;;;;;;;6.95;4.28;;;;;;;19.10;54.16;100701.66;5034440;28;20389;-65
2021/09/02 06:28:16;;;;;;;7.65;3.80;;;;;;;19.09;53.61;100711.25;5034517;28;20028;-69
2021/09/02 06:30:41;;;;;;;6.47;3.50;;;;;;;19.28;54.32;100706.09;5034317;28;20533;-65
2021/09/02 06:33:07;;;;;;;6.97;3.97;;;;;;;19.31;53.77;100703.50;5033964;28;20021;-65
2021/09/02 06:35:33;;;;;;;6.70;3.50;;;;;;;19.38;52.73;100715.75;5033917;28;20033;-65
2021/09/02 06:37:58;;;;;;;9.65;3.85;;;;;;;19.44;53.01;100713.16;5034041;28;20037;-65
2021/09/02 06:40:24;;;;;;;6.85;3.78;;;;;;;19.40;52.53;100711.38;5034010;28;20734;-65
2021/09/02 06:42:50;;;;;;;4.72;3.25;;;;;;;19.35;52.76;100711.38;5033926;28;20026;-65
2021/09/02 06:45:17;;;;;;;6.70;3.60;;;;;;;19.60;52.06;100706.25;5033953;28;20055;-65
2021/09/02 06:47:43;;;;;;;6.47;3.30;;;;;;;19.67;52.28;100702.75;5033975;28;20056;-64
2021/09/02 06:50:10;;;;;;;5.47;2.80;;;;;;;19.69;51.59;100684.44;5033736;28;20017;-65
2021/09/02 06:52:36;;;;;;;6.50;3.75;;;;;;;19.91;50.81;100711.59;5034054;28;20037;-65
2021/09/02 06:55:03;;;;;;;5.80;3.75;;;;;;;19.92;51.93;100717.72;5033775;28;20025;-65
2021/09/02 06:57:29;;;;;;;5.78;3.13;;;;;;;19.81;51.66;100715.94;5033822;28;20087;-64
2021/09/02 06:59:55;;;;;;;5.55;3.60;;;;;;;20.03;51.31;100718.63;5033487;28;20499;-65
2021/09/02 07:02:21;;;;;;;8.02;3.60;;;;;;;20.11;52.50;100711.66;5033504;28;20057;-70
2021/09/02 07:04:47;;;;;;;7.90;3.60;;;;;;;20.34;50.60;100719.53;4998590;28;20069;-65
2021/09/02 07:07:12;;;;;;;5.95;3.20;;;;;;;20.37;49.74;100718.66;5033377;28;20076;-65
2021/09/02 07:09:38;;;;;;;4.65;2.95;;;;;;;20.52;49.31;100715.16;5033040;28;20494;-66
2021/09/02 07:12:03;;;;;;;6.03;3.28;;;;;;;20.55;50.43;100722.16;5033674;28;20029;-65
2021/09/02 07:14:30;;;;;;;5.68;3.30;;;;;;;20.55;49.94;100722.16;5033756;28;20017;-65
2021/09/02 07:16:55;;;;;;;4.88;3.42;;;;;;;20.66;49.17;100716.03;4982677;28;20037;-65
2021/09/02 07:19:20;;;;;;;4.68;2.80;;;;;;;20.81;49.60;100717.81;5033443;28;20159;-65
2021/09/02 07:21:46;;;;;;;7.07;3.55;;;;;;;20.78;49.60;100714.31;5033454;28;20026;-65
2021/09/02 07:24:11;;;;;;;5.00;2.95;;;;;;;20.70;47.89;100698.53;5033148;28;20045;-68
2021/09/02 07:26:39;;;;;;;5.93;2.80;;;;;;;20.83;48.47;100721.28;5032901;28;20029;-65
2021/09/02 07:29:06;;;;;;;4.35;2.78;;;;;;;21.09;49.74;100711.63;5032790;28;20526;-64
2021/09/02 07:31:32;;;;;;;4.78;2.63;;;;;;;20.73;48.13;100684.56;5032096;28;20037;-68
2021/09/02 07:33:58;;;;;;;4.35;2.60;;;;;;;21.05;48.45;100720.38;5033343;28;20166;-65
2021/09/02 07:36:23;;;;;;;6.68;2.90;;;;;;;20.95;46.03;100680.16;5032771;28;20057;-63
2021/09/02 07:38:49;;;;;;;5.28;2.20;;;;;;;21.38;45.65;100723.78;5043620;28;20044;-66
2021/09/02 07:41:15;;;;;;;4.50;2.60;;;;;;;21.44;46.31;100724.63;5041911;28;20174;-64
2021/09/02 07:43:40;;;;;;;3.90;2.35;;;;;;;21.33;44.75;100721.16;5048984;28;20187;-64
2021/09/02 07:46:08;;;;;;;5.68;2.75;;;;;;;21.52;47.62;100723.72;5042109;28;20135;-65
2021/09/02 07:48:33;;;;;;;7.07;2.63;;;;;;;21.56;46.63;100722.84;5052282;28;20491;-65
2021/09/02 07:50:58;;;;;;;5.38;3.05;;;;;;;21.60;46.85;100714.97;5051832;28;20033;-63
2021/09/02 07:53:24;;;;;;;5.60;2.67;;;;;;;21.57;44.81;100688.72;5045220;28;20479;-64
2021/09/02 07:55:49;;;;;;;5.93;2.72;;;;;;;21.73;44.72;100710.53;5034011;28;20056;-67
2021/09/02 07:58:15;;;;;;;5.15;2.65;;;;;;;21.83;45.35;100694.69;5035805;28;20036;-69
2021/09/02 08:00:40;;;;;;;5.05;3.25;;;;;;;21.75;43.79;100711.38;5032942;28;20479;-64
2021/09/02 08:03:06;;;;;;;5.55;2.63;;;;;;;21.98;42.22;100710.38;5038586;28;20118;-67
2021/09/02 08:05:31;;;;;;;4.47;2.75;;;;;;;22.15;41.66;100712.88;5035374;28;20025;-66
2021/09/02 08:07:57;;;;;;;6.72;2.97;;;;;;;22.34;41.89;100710.13;5047103;28;20053;-69
2021/09/02 08:10:24;;;;;;;5.22;2.63;;;;;;;22.14;43.23;100704.16;5044073;28;20036;-66
2021/09/02 08:12:51;;;;;;;4.57;2.90;;;;;;;22.29;43.68;100707.53;5036777;28;20029;-67
2021/09/02 08:15:19;;;;;;;4.13;2.88;;;;;;;22.34;43.41;100703.09;5038041;28;20027;-63
2021/09/02 08:17:45;;;;;;;4.07;2.80;;;;;;;22.33;41.76;100704.00;5039111;28;20033;-62
2021/09/02 08:20:12;;;;;;;6.07;2.53;;;;;;;22.42;41.32;100703.94;5038482;28;20415;-65
2021/09/02 08:22:39;;;;;;;4.45;2.80;;;;;;;22.27;40.89;100706.69;5048572;28;20560;-66
2021/09/02 08:25:07;;;;;;;3.67;2.55;;;;;;;22.52;43.63;100706.50;5047378;28;20044;-67
2021/09/02 08:27:32;;;;;;;8.50;2.60;;;;;;;22.76;44.71;100708.91;5000216;28;20037;-67
2021/09/02 08:29:58;;;;;;;4.25;2.58;;;;;;;22.74;40.98;100694.91;5050903;28;20029;-67
2021/09/02 08:32:24;;;;;;;6.97;2.90;;;;;;;23.09;46.38;100688.38;5028830;28;20400;-65
2021/09/02 08:34:49;;;;;;;4.18;2.65;;;;;;;23.01;40.61;100690.22;5035435;28;20025;-67
2021/09/02 08:37:14;;;;;;;5.40;2.80;;;;;;;22.81;40.49;100702.75;5034180;28;20025;-67
2021/09/02 08:39:40;;;;;;;6.93;3.00;;;;;;;22.83;40.54;100687.78;5029870;28;20531;-68
2021/09/02 08:42:05;;;;;;;5.43;2.78;;;;;;;22.84;40.73;100686.91;5031323;28;20423;-65
2021/09/02 08:44:31;;;;;;;5.10;2.70;;;;;;;22.56;39.97;100692.44;5037107;28;20033;-67
2021/09/02 08:46:57;;;;;;;6.85;2.60;;;;;;;22.55;39.75;100680.16;5021661;28;20045;-67
2021/09/02 08:49:24;;;;;;;3.53;2.40;;;;;;;22.84;40.19;100677.25;5044517;28;20017;-68
2021/09/02 08:51:51;;;;;;;4.88;2.92;;;;;;;22.93;39.92;100671.88;5032811;28;20076;-66
2021/09/02 08:54:17;;;;;;;5.57;2.70;;;;;;;22.65;39.24;100644.97;5038039;28;21162;-63
2021/09/02 08:56:43;;;;;;;5.35;2.65;;;;;;;22.87;40.92;100640.34;5038385;28;20025;-67
2021/09/02 08:59:08;;;;;;;4.72;3.15;;;;;;;23.10;38.63;100666.44;5038160;28;20782;-64
2021/09/02 09:01:34;;;;;;;4.63;2.38;;;;;;;23.48;38.85;100660.69;5030680;28;20151;-64
2021/09/02 09:04:08;;;;;;;3.85;2.50;;;;;;;23.47;38.60;100661.63;5030298;28;20438;-64
2021/09/02 09:06:34;;;;;;;4.72;2.53;;;;;;;23.45;37.71;100632.63;5035438;28;20459;-67
2021/09/02 09:08:59;;;;;;;6.72;2.60;;;;;;;23.95;39.69;100667.13;5013905;28;20061;-68
2021/09/02 09:11:30;;;;;;;8.93;2.60;;;;;;;23.85;38.03;100663.72;5033547;28;20025;-66
2021/09/02 09:14:15;;;;;;;5.90;2.70;;;;;;;23.68;37.61;100669.22;5040403;28;20055;-65
2021/09/02 09:16:55;;;;;;;5.35;2.50;;;;;;;23.96;37.99;100670.63;5049525;28;20024;-69
2021/09/02 09:19:49;;;;;;;6.30;2.83;;;;;;;24.09;36.45;100666.00;5039834;28;20033;-69
2021/09/02 09:22:18;;;;;;;5.07;2.60;;;;;;;24.04;37.19;100664.31;5035185;28;20090;-71
2021/09/02 09:25:11;;;;;;;3.72;2.10;;;;;;;24.05;37.48;100659.91;5048368;28;20032;-66
2021/09/02 09:27:48;;;;;;;4.07;2.35;;;;;;;24.22;38.07;100671.09;5039066;28;20034;-67
2021/09/02 09:30:17;;;;;;;3.53;2.33;;;;;;;24.18;35.49;100668.50;5044851;28;20040;-68
2021/09/02 09:32:53;;;;;;;4.53;2.38;;;;;;;24.25;36.03;100662.25;5046590;28;20033;-67
2021/09/02 09:35:28;;;;;;;5.90;2.88;;;;;;;24.34;35.88;100651.53;5054235;28;20029;-64
2021/09/02 09:38:19;;;;;;;4.28;2.33;;;;;;;24.56;35.40;100648.50;5046314;28;20033;-64
2021/09/02 09:40:52;;;;;;;3.38;2.00;;;;;;;24.72;37.16;100646.47;5036229;28;20026;-66
2021/09/02 09:43:40;;;;;;;3.30;2.30;;;;;;;24.88;36.10;100641.78;5034625;28;20521;-69
2021/09/02 09:46:09;;;;;;;4.32;1.98;;;;;;;25.15;37.14;100634.19;4991593;28;20471;-67
2021/09/02 09:48:39;;;;;;;3.40;2.10;;;;;;;25.34;35.11;100639.94;4990679;28;20064;-68
2021/09/02 09:51:11;;;;;;;5.03;2.17;;;;;;;24.89;33.85;100630.31;4992602;28;20371;-66
2021/09/02 09:53:39;;;;;;;4.00;2.33;;;;;;;24.90;34.92;100629.41;4992499;28;20524;-64
2021/09/02 09:56:05;;;;;;;9.15;2.50;;;;;;;24.88;35.19;100588.94;4992511;28;20121;-65
2021/09/02 09:58:30;;;;;;;4.70;2.50;;;;;;;25.34;35.28;100619.66;4992147;28;20197;-64
2021/09/02 10:01:04;;;;;;;8.40;2.53;;;;;;;25.70;34.11;100618.06;4992536;28;20066;-65
2021/09/02 10:03:31;;;;;;;4.20;2.22;;;;;;;25.76;34.23;100620.56;4992159;28;20520;-64
2021/09/02 10:06:04;;;;;;;3.53;2.05;;;;;;;25.72;32.80;100609.19;4991862;28;20038;-70
2021/09/02 10:08:33;;;;;;;4.30;2.13;;;;;;;25.28;33.13;100614.50;4992217;28;20054;-64
2021/09/02 10:11:01;;;;;;;4.10;2.00;;;;;;;25.67;33.61;100617.22;4992283;28;20154;-66
2021/09/02 10:13:27;;;;;;;3.60;2.10;;;;;;;25.98;34.70;100624.41;4992531;28;20145;-64
2021/09/02 10:15:52;;;;;;;5.47;2.33;;;;;;;25.91;32.66;100614.88;4982208;28;20034;-65
2021/09/02 10:18:19;;;;;;;3.60;2.20;;;;;;;26.36;31.42;100603.19;5031689;28;20032;-64
2021/09/02 10:20:45;;;;;;;4.90;1.95;;;;;;;26.12;32.14;100602.91;5034348;28;20033;-66
2021/09/02 10:23:12;;;;;;;4.10;2.30;;;;;;;26.01;31.24;100610.22;5030572;28;20056;-64
2021/09/02 10:25:39;;;;;;;3.33;2.40;;;;;;;25.61;32.21;100614.69;5027892;28;20114;-65
2021/09/02 10:28:13;;;;;;;4.95;1.95;;;;;;;26.22;31.89;100614.16;5026026;28;20022;-64
2021/09/02 10:30:51;;;;;;;4.22;2.20;;;;;;;26.67;31.25;100604.13;5029255;28;20029;-65
2021/09/02 10:33:41;;;;;;;10.40;2.50;;;;;;;26.95;31.27;100589.22;5030241;28;20403;-67
2021/09/02 10:36:10;;;;;;;5.18;2.65;;;;;;;27.26;31.15;100593.59;5031954;28;20392;-65
2021/09/02 10:38:39;;;;;;;5.28;2.40;;;;;;;27.23;33.63;100600.78;5034555;28;20120;-64
2021/09/02 10:41:06;;;;;;;8.05;3.88;;;;;;;27.11;32.02;100594.91;5034118;28;20072;-65
2021/09/02 10:43:53;;;;;;;15.48;10.20;;;;;;;26.68;32.34;100593.50;5034557;28;20032;-65
2021/09/02 10:46:34;;;;;;;6.10;2.30;;;;;;;26.52;32.98;100611.59;5033770;28;20427;-65
2021/09/02 10:49:13;;;;;;;3.15;2.33;;;;;;;26.54;33.02;100604.44;5034502;28;20045;-64
2021/09/02 10:51:41;;;;;;;3.80;2.00;;;;;;;26.69;32.27;100607.59;5034096;28;20466;-65
2021/09/02 10:54:08;;;;;;;3.13;2.08;;;;;;;26.66;31.52;100603.25;5034157;28;20029;-65
2021/09/02 10:56:51;;;;;;;3.80;2.42;;;;;;;26.45;33.15;100605.56;5034146;28;20026;-65
2021/09/02 10:59:35;;;;;;;4.90;2.20;;;;;;;26.32;31.40;100607.69;5033847;28;20065;-65
2021/09/02 11:02:01;;;;;;;5.10;2.70;;;;;;;26.82;33.03;100592.25;5033813;28;20118;-64
2021/09/02 11:04:27;;;;;;;4.88;2.38;;;;;;;27.25;31.26;100596.28;5033962;28;20057;-64
2021/09/02 11:06:52;;;;;;;2.88;2.00;;;;;;;27.19;32.79;100596.47;5036642;28;20049;-65
2021/09/02 11:09:31;;;;;;;4.70;2.30;;;;;;;27.51;31.78;100594.66;5054070;28;20025;-65
2021/09/02 11:11:57;;;;;;;5.70;2.30;;;;;;;26.82;31.47;100598.44;5054035;28;20029;-65
2021/09/02 11:14:23;;;;;;;5.03;2.22;;;;;;;26.91;31.99;100598.16;5053707;28;20404;-65
2021/09/02 11:16:49;;;;;;;3.75;2.08;;;;;;;26.89;32.06;100594.72;5053847;28;20029;-65
2021/09/02 11:19:28;;;;;;;4.40;2.30;;;;;;;27.31;31.01;100585.50;5053655;28;20028;-65
2021/09/02 11:21:54;;;;;;;3.45;2.15;;;;;;;27.68;30.89;100580.84;5053613;28;20025;-65
2021/09/02 11:24:20;;;;;;;5.32;1.80;;;;;;;27.42;30.17;100553.38;5053526;28;20029;-65